Time;durP1;ratioP1;P1;durP2;ratioP2;P2;SDS_P1;SDS_P2;PMS_P1;PMS_P2;Temp;Humidity;BMP_temperature;BMP_pressure;BME280_temperature;BME280_humidity;BME280_pressure;Samples;Min_cycle;Max_cycle;Signal;HPM_P1;HPM_P2
2022/08/27 00:02:19;;;;;;;6.63;1.80;;;17.40;99.90;;;;;;4922833;29;20130;-88
2022/08/27 00:04:46;;;;;;;7.47;1.80;;;17.70;99.90;;;;;;4919245;29;20048;-89
2022/08/27 00:07:12;;;;;;;7.78;2.00;;;17.40;99.90;;;;;;4919134;29;20044;-89
2022/08/27 00:09:37;;;;;;;8.25;2.10;;;17.40;99.90;;;;;;4918047;29;20052;-88
2022/08/27 00:12:04;;;;;;;9.35;2.17;;;17.40;99.90;;;;;;4936308;29;20062;-89
2022/08/27 00:14:30;;;;;;;8.65;2.30;;;17.30;99.90;;;;;;4936367;29;20047;-89
2022/08/27 00:16:57;;;;;;;12.18;2.53;;;17.30;99.90;;;;;;4935536;29;20052;-88
2022/08/27 00:19:23;;;;;;;8.88;2.00;;;17.30;99.90;;;;;;4918787;29;20444;-89
2022/08/27 00:21:49;;;;;;;8.25;1.92;;;17.30;99.90;;;;;;4918812;29;20048;-89
2022/08/27 00:24:15;;;;;;;7.55;2.10;;;17.40;99.90;;;;;;4918247;29;20048;-88
2022/08/27 00:26:41;;;;;;;9.35;2.00;;;17.30;99.90;;;;;;4918424;29;20377;-88
2022/08/27 00:29:08;;;;;;;7.72;2.10;;;17.20;99.90;;;;;;4935013;29;20051;-88
2022/08/27 00:31:34;;;;;;;8.98;2.10;;;17.20;99.90;;;;;;4918601;29;20509;-89
2022/08/27 00:34:00;;;;;;;8.23;2.00;;;17.20;99.90;;;;;;4919104;29;20074;-88
2022/08/27 00:36:26;;;;;;;7.95;1.98;;;17.10;99.90;;;;;;4917530;29;20488;-88
2022/08/27 00:38:52;;;;;;;9.73;1.85;;;17.10;99.90;;;;;;4918699;29;20056;-88
2022/08/27 00:41:19;;;;;;;5.72;1.83;;;17.10;99.90;;;;;;4935331;29;20054;-88
2022/08/27 00:43:55;;;;;;;7.85;2.10;;;17.10;99.90;;;;;;4918277;29;20056;-88
2022/08/27 00:46:24;;;;;;;8.60;2.10;;;17.10;99.90;;;;;;4919477;29;20408;-88
2022/08/27 00:48:52;;;;;;;8.55;2.10;;;17.10;99.90;;;;;;4929685;28;20024;-89
2022/08/27 00:51:20;;;;;;;7.70;2.42;;;17.70;99.90;;;;;;4928315;29;20098;-88
2022/08/27 00:53:46;;;;;;;8.27;2.00;;;17.00;99.90;;;;;;4919409;29;20484;-88
2022/08/27 00:56:16;;;;;;;7.57;2.08;;;17.00;99.90;;;;;;4918727;29;20039;-88
2022/08/27 00:58:45;;;;;;;6.72;1.92;;;16.90;99.90;;;;;;4932242;29;20044;-88
2022/08/27 01:01:15;;;;;;;8.80;2.00;;;16.90;99.90;;;;;;4950903;28;20039;-87
2022/08/27 01:03:48;;;;;;;6.80;2.00;;;17.00;99.90;;;;;;4936464;29;20047;-89
2022/08/27 01:06:17;;;;;;;9.63;2.33;;;17.50;99.90;;;;;;4936185;29;20050;-89
2022/08/27 01:08:49;;;;;;;7.07;2.05;;;16.90;99.90;;;;;;4925163;29;20183;-89
2022/08/27 01:11:18;;;;;;;9.55;2.20;;;16.90;99.90;;;;;;4934997;29;20421;-88
2022/08/27 01:13:44;;;;;;;7.05;1.95;;;16.80;99.90;;;;;;4918499;29;20510;-88
2022/08/27 01:16:15;;;;;;;8.50;2.22;;;16.90;99.90;;;;;;4918444;29;20052;-89
2022/08/27 01:18:40;;;;;;;7.25;2.08;;;16.80;99.90;;;;;;4917986;29;20387;-88
2022/08/27 01:21:26;;;;;;;7.03;2.10;;;17.20;99.90;;;;;;4936904;29;20099;-89
2022/08/27 01:24:00;;;;;;;8.35;2.03;;;16.70;99.90;;;;;;4921252;29;20044;-89
2022/08/27 01:26:26;;;;;;;;;;;17.10;99.90;;;;;;4934761;29;20502;-88
2022/08/27 01:28:52;;;;;;;9.90;2.20;;;16.70;99.90;;;;;;4935133;29;19923;-89
2022/08/27 01:31:18;;;;;;;8.05;2.30;;;16.60;99.90;;;;;;4918409;29;20058;-88
2022/08/27 01:33:59;;;;;;;7.80;2.08;;;16.60;99.90;;;;;;4917643;29;20507;-88
2022/08/27 01:36:24;;;;;;;10.32;2.20;;;16.60;99.90;;;;;;4918293;29;20043;-89
2022/08/27 01:38:50;;;;;;;8.05;2.00;;;16.50;99.90;;;;;;4919505;29;20043;-88
2022/08/27 01:41:19;;;;;;;9.88;2.30;;;16.50;99.90;;;;;;4921267;29;20047;-88
2022/08/27 01:43:45;;;;;;;9.23;2.25;;;16.50;99.90;;;;;;4922222;29;20055;-89
2022/08/27 01:46:10;;;;;;;11.32;2.25;;;16.50;99.90;;;;;;4921939;29;20500;-89
2022/08/27 01:48:36;;;;;;;6.97;1.98;;;16.40;99.90;;;;;;4938755;29;20043;-89
2022/08/27 01:51:02;;;;;;;7.97;2.20;;;16.40;99.90;;;;;;4925254;29;20077;-89
2022/08/27 01:53:29;;;;;;;8.10;2.45;;;16.40;99.90;;;;;;4920893;29;20087;-88
2022/08/27 01:55:55;;;;;;;6.63;2.10;;;16.40;99.90;;;;;;4921662;29;20098;-87
2022/08/27 01:58:24;;;;;;;6.72;2.20;;;16.30;99.90;;;;;;4924378;29;20048;-87
2022/08/27 02:00:53;;;;;;;8.98;2.30;;;16.40;99.90;;;;;;4937882;29;20044;-89
2022/08/27 02:03:18;;;;;;;8.02;2.40;;;16.30;99.90;;;;;;4921236;29;20084;-89
2022/08/27 02:05:46;;;;;;;9.65;2.70;;;16.30;99.90;;;;;;4937760;29;20440;-88
2022/08/27 02:08:17;;;;;;;9.13;2.65;;;16.30;99.90;;;;;;4937389;29;20567;-88
2022/08/27 02:10:45;;;;;;;9.00;2.20;;;16.30;99.90;;;;;;4938498;29;20047;-89
2022/08/27 02:13:12;;;;;;;7.90;2.20;;;16.40;99.90;;;;;;4921355;29;20046;-89
2022/08/27 02:15:38;;;;;;;10.15;2.40;;;16.80;99.90;;;;;;4920049;29;20098;-89
2022/08/27 02:18:05;;;;;;;9.05;2.10;;;16.30;99.90;;;;;;4938444;29;20044;-88
2022/08/27 02:20:31;;;;;;;8.15;2.30;;;16.30;99.90;;;;;;4920850;29;20055;-88
2022/08/27 02:22:57;;;;;;;8.98;2.20;;;16.30;99.90;;;;;;4941585;29;20038;-88
2022/08/27 02:25:23;;;;;;;7.68;2.20;;;16.30;99.90;;;;;;4938632;29;20468;-88
2022/08/27 02:27:49;;;;;;;8.93;2.35;;;16.30;99.90;;;;;;4940222;29;20134;-88
2022/08/27 02:30:19;;;;;;;8.73;2.13;;;16.90;99.90;;;;;;4937793;29;20500;-89
2022/08/27 02:32:46;;;;;;;8.00;2.20;;;16.30;99.90;;;;;;4905801;29;20489;-89
2022/08/27 02:35:13;;;;;;;9.65;2.20;;;16.30;99.90;;;;;;4901858;29;20564;-89
2022/08/27 02:37:40;;;;;;;10.00;2.42;;;16.70;99.90;;;;;;4906719;29;20051;-88
2022/08/27 02:40:07;;;;;;;9.48;2.13;;;16.30;99.90;;;;;;4921889;29;20051;-89
2022/08/27 02:42:33;;;;;;;6.50;2.00;;;16.30;99.90;;;;;;4901994;29;20056;-88
2022/08/27 02:44:59;;;;;;;9.15;2.10;;;16.30;99.90;;;;;;4906256;29;20039;-89
2022/08/27 02:47:24;;;;;;;9.30;2.15;;;16.30;99.90;;;;;;4905596;29;20103;-88
2022/08/27 02:49:50;;;;;;;9.52;2.10;;;16.30;99.90;;;;;;4917390;29;20059;-88
2022/08/27 02:52:16;;;;;;;7.25;1.98;;;16.30;99.90;;;;;;4921503;29;20048;-88
2022/08/27 02:54:42;;;;;;;10.77;2.10;;;16.30;99.90;;;;;;4902128;29;20485;-88
2022/08/27 02:57:08;;;;;;;7.05;2.22;;;16.20;99.90;;;;;;4901094;29;20519;-89
2022/08/27 02:59:34;;;;;;;11.43;2.30;;;16.20;99.90;;;;;;4901512;29;20064;-89
2022/08/27 03:02:00;;;;;;;9.40;2.17;;;16.20;99.90;;;;;;4901563;29;20123;-89
2022/08/27 03:04:27;;;;;;;7.82;1.90;;;16.20;99.90;;;;;;4900407;29;20044;-89
2022/08/27 03:06:53;;;;;;;10.00;2.10;;;16.20;99.90;;;;;;4901751;29;20082;-89
2022/08/27 03:09:19;;;;;;;8.30;2.05;;;16.20;99.90;;;;;;4917940;29;20040;-88
2022/08/27 03:11:45;;;;;;;8.95;2.25;;;16.10;99.90;;;;;;4917641;29;20055;-89
2022/08/27 03:14:11;;;;;;;6.35;1.88;;;16.30;99.90;;;;;;4901942;29;20412;-88
2022/08/27 03:16:38;;;;;;;7.97;2.17;;;16.10;99.90;;;;;;4917988;29;20036;-90
2022/08/27 03:19:05;;;;;;;6.28;2.00;;;16.10;99.90;;;;;;4917280;29;20048;-88
2022/08/27 03:21:32;;;;;;;6.43;1.98;;;16.00;99.90;;;;;;4900806;29;20044;-89
2022/08/27 03:24:00;;;;;;;9.30;2.00;;;16.00;99.90;;;;;;4901223;29;20044;-88
2022/08/27 03:26:30;;;;;;;10.68;2.20;;;16.00;99.90;;;;;;4909951;29;20048;-88
2022/08/27 03:28:55;;;;;;;7.40;1.80;;;16.00;99.90;;;;;;4939545;29;20040;-88
2022/08/27 03:31:26;;;;;;;6.75;1.80;;;15.90;99.90;;;;;;4922601;29;20055;-88
2022/08/27 03:33:58;;;;;;;6.97;1.92;;;15.90;99.90;;;;;;4910517;29;20056;-88
2022/08/27 03:36:26;;;;;;;8.00;1.77;;;15.90;99.90;;;;;;4918070;29;20048;-89
2022/08/27 03:38:51;;;;;;;11.15;2.00;;;15.90;99.90;;;;;;4900998;29;20405;-88
2022/08/27 03:41:17;;;;;;;7.43;2.10;;;15.90;99.90;;;;;;4917621;29;20044;-88
2022/08/27 03:43:43;;;;;;;7.25;2.10;;;15.80;99.90;;;;;;4917840;29;20054;-88
2022/08/27 03:46:09;;;;;;;9.70;2.00;;;15.80;99.90;;;;;;4917179;29;20044;-89
2022/08/27 03:48:40;;;;;;;7.53;2.05;;;15.70;99.90;;;;;;4905016;29;20496;-89
2022/08/27 03:51:12;;;;;;;6.60;1.90;;;15.70;99.90;;;;;;4901381;29;20052;-88
2022/08/27 03:53:42;;;;;;;7.65;2.17;;;15.80;99.90;;;;;;4900337;29;20128;-89
2022/08/27 03:56:08;;;;;;;8.77;1.98;;;15.70;99.90;;;;;;4921376;29;20048;-87
2022/08/27 03:58:35;;;;;;;6.57;1.80;;;15.70;99.90;;;;;;4911819;29;20036;-88
2022/08/27 04:01:02;;;;;;;7.35;1.95;;;16.50;99.90;;;;;;4928525;29;20037;-89
2022/08/27 04:03:28;;;;;;;8.23;2.33;;;15.80;99.90;;;;;;4918740;29;20036;-89
2022/08/27 04:05:55;;;;;;;8.50;2.00;;;15.80;99.90;;;;;;4916521;29;20047;-88
2022/08/27 04:08:21;;;;;;;5.95;1.90;;;15.80;99.90;;;;;;4899208;29;20080;-89
2022/08/27 04:10:48;;;;;;;8.05;2.10;;;15.80;99.90;;;;;;4901980;29;20047;-88
2022/08/27 04:13:13;;;;;;;7.95;2.22;;;15.80;99.90;;;;;;4900285;29;20044;-88
2022/08/27 04:15:43;;;;;;;10.82;2.10;;;16.40;99.90;;;;;;4920736;29;20215;-89
2022/08/27 04:18:11;;;;;;;7.45;2.25;;;15.80;99.90;;;;;;4920525;29;20051;-88
2022/08/27 04:20:37;;;;;;;7.30;1.80;;;15.70;99.90;;;;;;4903778;29;20515;-89
2022/08/27 04:23:03;;;;;;;8.35;2.08;;;15.70;99.90;;;;;;4920192;29;20048;-88
2022/08/27 04:25:29;;;;;;;7.35;2.13;;;15.70;99.90;;;;;;4906158;29;20044;-89
2022/08/27 04:27:54;;;;;;;8.18;1.90;;;15.70;99.90;;;;;;4900389;29;20048;-89
2022/08/27 04:30:20;;;;;;;7.32;1.90;;;16.10;99.90;;;;;;4916255;29;20056;-88
2022/08/27 04:32:46;;;;;;;7.30;1.90;;;15.70;99.90;;;;;;4902111;29;20053;-88
2022/08/27 04:35:12;;;;;;;8.13;2.10;;;15.60;99.90;;;;;;4899585;29;20052;-89
2022/08/27 04:37:39;;;;;;;7.78;2.08;;;15.50;99.90;;;;;;4899758;29;20044;-88
2022/08/27 04:40:05;;;;;;;7.60;2.00;;;15.80;99.90;;;;;;4901127;29;20119;-88
2022/08/27 04:42:31;;;;;;;5.95;2.10;;;15.50;99.90;;;;;;4899051;29;20074;-89
2022/08/27 04:44:56;;;;;;;8.75;2.05;;;15.60;99.90;;;;;;4900031;29;20472;-88
2022/08/27 04:47:22;;;;;;;7.97;2.10;;;15.50;99.90;;;;;;4916444;29;20680;-88
2022/08/27 04:49:48;;;;;;;6.03;2.00;;;15.50;99.90;;;;;;4899158;29;20044;-88
2022/08/27 04:52:14;;;;;;;6.90;2.20;;;15.40;99.90;;;;;;4915920;29;20097;-88
2022/08/27 04:54:40;;;;;;;7.32;2.10;;;15.40;99.90;;;;;;4900149;29;20044;-88
2022/08/27 04:57:07;;;;;;;6.78;2.10;;;15.40;99.90;;;;;;4916031;29;20500;-88
2022/08/27 04:59:34;;;;;;;8.32;2.25;;;15.40;99.90;;;;;;4916755;29;20040;-88
2022/08/27 05:02:01;;;;;;;7.75;2.22;;;15.40;99.90;;;;;;4899761;29;20048;-87
2022/08/27 05:04:29;;;;;;;7.88;2.05;;;15.30;99.90;;;;;;4898505;29;20440;-87
2022/08/27 05:07:05;;;;;;;8.70;2.20;;;15.30;99.90;;;;;;4919241;29;20044;-88
2022/08/27 05:09:31;;;;;;;9.52;2.28;;;15.80;99.90;;;;;;4899370;29;20055;-89
2022/08/27 05:12:10;;;;;;;7.15;2.05;;;15.60;99.90;;;;;;4916536;29;20048;-90
2022/08/27 05:14:36;;;;;;;8.07;2.38;;;15.20;99.90;;;;;;4917654;29;20079;-89
2022/08/27 05:17:04;;;;;;;7.03;1.90;;;15.10;99.90;;;;;;4920785;29;20159;-92
2022/08/27 05:19:30;;;;;;;7.60;2.08;;;15.10;99.90;;;;;;4902693;29;20056;-89
2022/08/27 05:21:56;;;;;;;8.68;2.22;;;15.60;99.90;;;;;;4903586;29;20051;-90
2022/08/27 05:24:21;;;;;;;8.13;2.35;;;15.20;99.90;;;;;;4903105;29;20514;-92
2022/08/27 05:26:48;;;;;;;9.98;2.60;;;15.10;99.90;;;;;;4920371;29;20044;-93
2022/08/27 05:29:27;;;;;;;7.97;2.00;;;15.50;99.90;;;;;;4921440;29;20052;-92
2022/08/27 05:31:53;;;;;;;10.15;2.45;;;15.80;99.90;;;;;;4909903;29;20407;-92
2022/08/27 05:34:21;;;;;;;7.75;2.00;;;14.50;99.90;;;;;;4954268;29;20056;-93
2022/08/27 05:36:47;;;;;;;8.75;2.15;;;15.80;99.90;;;;;;4940100;29;20134;-89
2022/08/27 05:39:12;;;;;;;6.60;1.98;;;15.10;99.90;;;;;;4925562;29;20063;-90
2022/08/27 05:41:38;;;;;;;6.93;2.00;;;15.10;99.90;;;;;;4939338;29;20048;-93
2022/08/27 05:44:20;;;;;;;10.52;2.47;;;15.00;99.90;;;;;;4923934;29;20054;-91
2022/08/27 05:46:46;;;;;;;10.30;2.22;;;15.40;99.90;;;;;;4924527;29;20062;-84
2022/08/27 05:49:11;;;;;;;9.75;2.47;;;14.90;99.90;;;;;;4946411;29;20051;-88
2022/08/27 05:51:37;;;;;;;7.13;1.90;;;16.00;99.90;;;;;;4930734;29;20044;-91
2022/08/27 05:54:13;;;;;;;10.27;2.22;;;16.20;99.90;;;;;;4955937;28;20064;-92
2022/08/27 05:56:51;;;;;;;6.63;2.10;;;16.20;99.90;;;;;;4938682;29;20110;-95
2022/08/27 06:02:02;;;;;;;6.45;1.88;;;16.10;99.90;;;;;;4929875;29;20047;-92
2022/08/27 06:04:29;;;;;;;8.30;1.90;;;15.40;99.90;;;;;;4925979;29;20086;-93
2022/08/27 06:06:54;;;;;;;8.70;2.30;;;15.40;99.90;;;;;;4938341;29;20051;-89
2022/08/27 06:09:24;;;;;;;8.10;2.08;;;15.50;99.90;;;;;;4938755;29;20058;-88
2022/08/27 06:11:53;;;;;;;8.13;2.28;;;15.60;99.90;;;;;;4938762;29;20130;-88
2022/08/27 06:14:18;;;;;;;10.10;2.30;;;16.10;99.90;;;;;;4937535;29;20044;-87
2022/08/27 06:16:44;;;;;;;9.05;2.28;;;15.90;99.90;;;;;;4929923;29;20411;-89
2022/08/27 06:19:11;;;;;;;8.88;1.90;;;16.20;99.90;;;;;;4940062;29;20500;-94
2022/08/27 06:21:37;;;;;;;9.10;2.13;;;16.10;99.90;;;;;;4923267;29;20044;-93
2022/08/27 06:24:16;;;;;;;7.72;2.00;;;16.70;99.90;;;;;;4923313;29;20138;-93
2022/08/27 06:26:43;;;;;;;7.80;2.00;;;17.00;99.90;;;;;;4922577;29;20039;-94
2022/08/27 06:29:10;;;;;;;9.30;2.10;;;16.60;99.90;;;;;;4938998;29;20050;-95
2022/08/27 06:31:49;;;;;;;7.55;2.00;;;17.30;99.90;;;;;;4922560;29;20040;-93
2022/08/27 06:34:15;;;;;;;9.38;2.15;;;17.30;99.90;;;;;;4938104;29;20054;-91
2022/08/27 06:36:41;;;;;;;6.82;2.03;;;17.30;99.90;;;;;;4937782;29;20043;-92
2022/08/27 06:39:12;;;;;;;10.88;2.40;;;16.70;99.90;;;;;;4940708;29;20519;-94
2022/08/27 06:41:49;;;;;;;8.73;2.25;;;17.60;99.90;;;;;;4939196;29;20047;-96
2022/08/27 06:44:40;;;;;;;9.48;2.40;;;17.60;99.90;;;;;;4940144;29;20186;-93
2022/08/27 06:47:05;;;;;;;5.97;2.05;;;16.70;99.90;;;;;;4936486;29;20058;-90
2022/08/27 06:49:37;;;;;;;8.93;2.63;;;18.00;99.90;;;;;;4937224;29;20047;-89
2022/08/27 06:52:02;;;;;;;8.82;2.30;;;17.10;99.90;;;;;;4936304;29;20051;-90
2022/08/27 06:54:28;;;;;;;7.68;2.35;;;17.20;99.90;;;;;;4936431;29;20048;-90
2022/08/27 06:57:03;;;;;;;9.18;2.15;;;17.50;99.90;;;;;;4937804;29;20250;-90
2022/08/27 06:59:29;;;;;;;7.35;2.00;;;17.40;99.90;;;;;;4937935;29;20091;-90
2022/08/27 07:01:55;;;;;;;8.82;2.00;;;17.40;99.90;;;;;;4937855;29;20048;-90
2022/08/27 07:04:23;;;;;;;9.93;2.50;;;17.80;99.90;;;;;;4936929;29;20087;-90
2022/08/27 07:06:55;;;;;;;8.18;2.10;;;18.20;99.90;;;;;;4936882;29;20047;-90
2022/08/27 07:09:22;;;;;;;8.70;2.13;;;17.70;99.90;;;;;;4947766;29;20027;-90
2022/08/27 07:11:47;;;;;;;7.18;1.92;;;18.40;99.90;;;;;;4946931;29;20399;-89
2022/08/27 07:14:13;;;;;;;10.40;2.30;;;18.40;99.90;;;;;;4937031;29;20044;-90
2022/08/27 07:16:55;;;;;;;7.68;2.10;;;17.90;99.90;;;;;;4936506;29;20048;-90
2022/08/27 07:19:21;;;;;;;8.27;2.13;;;18.10;99.90;;;;;;4942224;29;20043;-90
2022/08/27 07:21:47;;;;;;;8.20;2.42;;;18.10;99.90;;;;;;4937675;29;20099;-90
2022/08/27 07:24:12;;;;;;;8.40;2.20;;;18.90;99.90;;;;;;4937119;29;20048;-90
2022/08/27 07:26:41;;;;;;;8.00;2.25;;;18.10;99.90;;;;;;4937228;29;20539;-90
2022/08/27 07:29:23;;;;;;;8.77;2.53;;;19.00;99.90;;;;;;4936590;29;20095;-90
2022/08/27 07:32:00;;;;;;;6.10;1.90;;;18.80;99.90;;;;;;4940242;29;20059;-91
2022/08/27 07:34:26;;;;;;;6.63;1.92;;;18.10;99.90;;;;;;4937719;29;20095;-90
2022/08/27 07:36:52;;;;;;;8.13;1.90;;;18.90;99.90;;;;;;4938392;29;20488;-91
2022/08/27 07:39:20;;;;;;;9.00;2.15;;;19.20;99.90;;;;;;4939262;29;20142;-90
2022/08/27 07:44:33;;;;;;;8.57;2.28;;;19.30;99.90;;;;;;4936911;29;20395;-90
2022/08/27 07:46:59;;;;;;;8.82;2.10;;;18.60;99.90;;;;;;4937857;29;20050;-89
2022/08/27 07:49:27;;;;;;;8.02;1.98;;;19.20;99.90;;;;;;4938530;29;20047;-89
2022/08/27 07:51:53;;;;;;;10.85;2.10;;;18.70;99.90;;;;;;4960185;29;20043;-90
2022/08/27 07:54:22;;;;;;;9.15;2.50;;;18.90;99.90;;;;;;4939060;29;20492;-91
2022/08/27 07:56:58;;;;;;;9.18;2.20;;;18.90;99.90;;;;;;4956583;29;20074;-90
2022/08/27 07:59:24;;;;;;;8.90;2.30;;;19.00;99.90;;;;;;4955218;29;20051;-90
2022/08/27 08:01:50;;;;;;;9.95;1.90;;;19.10;99.90;;;;;;4923590;29;20054;-90
2022/08/27 08:04:15;;;;;;;9.55;2.05;;;19.10;99.90;;;;;;4940045;29;20043;-89
2022/08/27 08:06:41;;;;;;;8.52;1.90;;;19.60;99.90;;;;;;4943416;29;20066;-90
2022/08/27 08:09:06;;;;;;;8.80;2.25;;;19.80;99.90;;;;;;4938175;29;20058;-89
2022/08/27 08:11:41;;;;;;;7.22;1.83;;;20.20;99.90;;;;;;4938199;29;20047;-89
2022/08/27 08:14:07;;;;;;;7.13;2.22;;;20.10;99.90;;;;;;4937597;29;20047;-89
2022/08/27 08:16:32;;;;;;;7.38;2.00;;;20.20;99.90;;;;;;4938968;29;20426;-89
2022/08/27 08:19:01;;;;;;;8.90;2.17;;;19.80;99.90;;;;;;4972932;29;20035;-89
2022/08/27 08:21:27;;;;;;;7.63;2.05;;;19.70;99.90;;;;;;4953934;29;20051;-89
2022/08/27 08:24:02;;;;;;;11.18;2.83;;;20.10;99.90;;;;;;4947196;29;20078;-89
2022/08/27 08:26:28;;;;;;;11.80;2.10;;;19.80;99.90;;;;;;4954438;29;20086;-89
2022/08/27 08:28:54;;;;;;;10.07;3.00;;;20.70;99.90;;;;;;4954698;29;20082;-90
2022/08/27 08:31:20;;;;;;;10.68;2.40;;;20.40;99.90;;;;;;4955107;29;20039;-90
2022/08/27 08:33:49;;;;;;;8.13;2.00;;;19.80;99.90;;;;;;4937804;29;20146;-90
2022/08/27 08:36:16;;;;;;;7.43;2.08;;;19.80;99.90;;;;;;4954241;29;20043;-89
2022/08/27 08:38:43;;;;;;;8.13;2.25;;;19.90;99.90;;;;;;4955142;29;20081;-89
2022/08/27 08:41:27;;;;;;;6.70;2.25;;;19.90;99.90;;;;;;4938146;29;20098;-89
2022/08/27 08:43:55;;;;;;;9.30;2.45;;;19.90;99.90;;;;;;4959981;29;20086;-89
2022/08/27 08:46:49;;;;;;;7.90;2.10;;;20.40;99.90;;;;;;4963283;29;20134;-89
2022/08/27 08:49:33;;;;;;;7.97;2.55;;;19.90;99.90;;;;;;4936440;29;20058;-90
2022/08/27 08:52:28;;;;;;;7.05;2.15;;;19.90;99.90;;;;;;4938387;29;20126;-89
2022/08/27 08:55:22;;;;;;;8.00;2.47;;;19.90;99.90;;;;;;4955354;29;20058;-89
2022/08/27 08:57:55;;;;;;;8.93;2.15;;;19.80;99.90;;;;;;4954487;29;20130;-90
2022/08/27 09:00:21;;;;;;;9.15;2.47;;;20.30;99.90;;;;;;4955197;29;20078;-91
2022/08/27 09:02:54;;;;;;;10.95;2.30;;;19.70;99.90;;;;;;4954515;29;20558;-89
2022/08/27 09:05:21;;;;;;;8.60;2.22;;;19.70;99.90;;;;;;4936674;29;20542;-90
2022/08/27 09:07:55;;;;;;;8.95;2.30;;;19.90;99.90;;;;;;4939127;29;20118;-90
2022/08/27 09:10:47;;;;;;;10.73;2.45;;;19.60;99.90;;;;;;4943032;28;20055;-90
2022/08/27 09:13:40;;;;;;;11.85;2.42;;;19.60;99.90;;;;;;4955669;28;20043;-90
2022/08/27 09:16:07;;;;;;;9.00;2.67;;;19.70;99.90;;;;;;4938665;29;20071;-90
2022/08/27 09:18:52;;;;;;;10.70;2.28;;;20.00;99.90;;;;;;4942524;29;20554;-90
2022/08/27 09:21:32;;;;;;;12.30;2.28;;;19.70;99.90;;;;;;4938237;29;20522;-90
2022/08/27 09:24:11;;;;;;;7.88;2.10;;;19.70;99.90;;;;;;4940109;29;20055;-90
2022/08/27 09:26:39;;;;;;;10.18;2.50;;;19.80;99.90;;;;;;4939707;29;20058;-90
2022/08/27 09:29:20;;;;;;;8.45;1.88;;;20.50;99.90;;;;;;4937532;29;20043;-89
2022/08/27 09:31:52;;;;;;;10.38;2.22;;;20.10;99.90;;;;;;4936559;29;20462;-91
2022/08/27 09:34:20;;;;;;;8.90;2.00;;;20.50;99.90;;;;;;4941779;29;20062;-90
2022/08/27 09:37:03;;;;;;;12.57;3.10;;;20.30;99.90;;;;;;4928471;29;20055;-90
2022/08/27 09:39:55;;;;;;;10.50;2.42;;;20.30;99.90;;;;;;4957930;29;20030;-90
2022/08/27 09:42:32;;;;;;;12.60;2.42;;;20.30;99.90;;;;;;4937918;29;20470;-90
2022/08/27 09:44:58;;;;;;;9.27;1.98;;;20.40;99.90;;;;;;4936864;29;20106;-90
2022/08/27 09:47:27;;;;;;;9.20;1.95;;;20.40;99.90;;;;;;4951394;29;20078;-90
2022/08/27 09:50:22;;;;;;;6.25;1.70;;;20.40;99.90;;;;;;4944452;28;20040;-89
2022/08/27 09:53:38;;;;;;;7.32;1.90;;;20.60;99.90;;;;;;4956855;29;20455;-90
2022/08/27 09:56:09;;;;;;;7.63;1.90;;;20.80;99.90;;;;;;4895512;29;20053;-90
2022/08/27 09:59:00;;;;;;;9.00;1.90;;;21.20;99.90;;;;;;4879723;29;20072;-90
2022/08/27 10:01:29;;;;;;;8.32;1.80;;;21.90;99.90;;;;;;4942661;29;20051;-90
2022/08/27 10:04:13;;;;;;;10.05;2.30;;;21.20;99.90;;;;;;4940888;29;20066;-90
2022/08/27 10:06:48;;;;;;;7.78;1.70;;;21.20;99.90;;;;;;4957097;29;20113;-89
2022/08/27 10:09:33;;;;;;;10.32;1.90;;;21.00;99.90;;;;;;4940344;29;20157;-89
2022/08/27 10:12:21;;;;;;;8.68;2.13;;;21.30;99.90;;;;;;4957735;29;20082;-90
2022/08/27 10:14:53;;;;;;;9.00;2.05;;;20.80;99.90;;;;;;4939734;29;20055;-89
2022/08/27 10:17:22;;;;;;;8.93;1.98;;;20.70;99.90;;;;;;4943658;29;20043;-90
2022/08/27 10:20:17;;;;;;;10.55;1.90;;;20.80;99.90;;;;;;4957543;29;20046;-89
2022/08/27 10:23:13;;;;;;;9.85;2.15;;;20.80;99.90;;;;;;4942590;29;20039;-89
2022/08/27 10:26:38;;;;;;;8.98;2.05;;;20.70;99.90;;;;;;4941070;29;20156;-90
2022/08/27 10:29:21;;;;;;;7.35;1.70;;;20.70;99.90;;;;;;4956767;29;20054;-91
2022/08/27 10:32:17;;;;;;;11.25;1.90;;;20.80;99.90;;;;;;4941372;29;20401;-90
2022/08/27 10:34:43;;;;;;;7.88;1.63;;;20.90;99.90;;;;;;4956894;29;20051;-91
2022/08/27 10:37:17;;;;;;;7.63;1.77;;;21.00;99.90;;;;;;4940266;29;20055;-89
2022/08/27 10:40:20;;;;;;;6.97;1.73;;;21.10;99.90;;;;;;4957754;29;20043;-90
2022/08/27 10:43:31;;;;;;;10.60;2.25;;;21.10;99.90;;;;;;4939380;29;20118;-89
2022/08/27 10:46:13;;;;;;;7.53;1.70;;;21.20;99.90;;;;;;4943125;29;20134;-91
2022/08/27 10:48:58;;;;;;;8.18;1.98;;;21.20;99.90;;;;;;4964409;29;20051;-91
2022/08/27 10:51:39;;;;;;;9.80;1.90;;;21.20;99.90;;;;;;4957879;29;20487;-90
2022/08/27 10:54:33;;;;;;;6.75;1.90;;;21.20;99.90;;;;;;4957732;29;20053;-90
2022/08/27 10:57:22;;;;;;;10.77;2.10;;;21.60;99.90;;;;;;4969552;23;20055;-90
2022/08/27 10:59:56;;;;;;;9.57;1.90;;;22.30;99.90;;;;;;4957810;29;20039;-91
2022/08/27 11:02:38;;;;;;;11.52;2.00;;;23.00;99.90;;;;;;4958014;28;20054;-90
2022/08/27 11:05:23;;;;;;;6.85;2.15;;;23.30;99.90;;;;;;4959403;28;20042;-91
2022/08/27 11:07:55;;;;;;;9.82;2.00;;;23.00;99.90;;;;;;4978796;28;20060;-91
2022/08/27 11:10:34;;;;;;;8.27;2.33;;;22.70;99.90;;;;;;4967585;28;20106;-90
2022/08/27 11:13:07;;;;;;;8.05;1.95;;;22.50;99.90;;;;;;4960439;28;20093;-89
2022/08/27 11:15:42;;;;;;;8.82;1.70;;;22.20;99.90;;;;;;4975663;28;20376;-90
2022/08/27 11:18:44;;;;;;;9.25;1.83;;;22.10;99.90;;;;;;4959227;28;20042;-90
2022/08/27 11:21:24;;;;;;;6.55;1.70;;;22.00;99.90;;;;;;4979214;28;20049;-90
2022/08/27 11:24:05;;;;;;;9.27;1.90;;;22.00;99.90;;;;;;4975619;28;20105;-91
2022/08/27 11:26:32;;;;;;;8.70;1.90;;;22.00;99.90;;;;;;4959375;28;20487;-91
2022/08/27 11:29:31;;;;;;;10.10;1.95;;;22.70;99.90;;;;;;4976314;28;20043;-92
2022/08/27 11:32:22;;;;;;;9.30;1.80;;;21.90;99.90;;;;;;4957491;28;20514;-91
2022/08/27 11:34:58;;;;;;;7.80;2.00;;;21.90;99.90;;;;;;4975614;28;20047;-91
2022/08/27 11:37:33;;;;;;;8.88;2.00;;;22.00;99.90;;;;;;4964277;28;20039;-91
2022/08/27 11:40:26;;;;;;;8.18;2.33;;;22.20;99.90;;;;;;4938866;29;20055;-90
2022/08/27 11:43:13;;;;;;;10.35;1.80;;;22.20;99.90;;;;;;4918913;29;20087;-89
2022/08/27 11:46:01;;;;;;;7.93;1.90;;;22.50;99.90;;;;;;4938333;29;20051;-91
2022/08/27 11:48:30;;;;;;;6.82;1.80;;;22.80;99.90;;;;;;4926184;29;20044;-89
2022/08/27 11:51:29;;;;;;;8.52;2.10;;;23.70;99.90;;;;;;4919629;29;20171;-89
2022/08/27 11:54:17;;;;;;;9.63;2.05;;;23.50;99.90;;;;;;4933940;29;20055;-90
2022/08/27 11:56:43;;;;;;;9.15;2.08;;;23.80;99.90;;;;;;4921750;29;20056;-90
2022/08/27 11:59:20;;;;;;;8.57;1.70;;;24.60;99.90;;;;;;4934000;29;20052;-89
2022/08/27 12:01:47;;;;;;;7.65;2.10;;;24.30;99.90;;;;;;4934446;29;20047;-90
2022/08/27 12:04:21;;;;;;;7.38;1.75;;;24.20;99.90;;;;;;4934221;29;20130;-90
2022/08/27 12:07:06;;;;;;;7.45;1.80;;;23.80;99.90;;;;;;4918258;29;20052;-91
2022/08/27 12:10:01;;;;;;;8.93;1.67;;;23.60;99.90;;;;;;4918110;29;20083;-90
2022/08/27 12:12:30;;;;;;;5.47;1.67;;;23.00;99.70;;;;;;4964874;28;20495;-92
2022/08/27 12:15:24;;;;;;;7.15;1.92;;;23.00;99.90;;;;;;4957777;28;20522;-89
2022/08/27 12:18:42;;;;;;;8.05;1.80;;;22.80;99.90;;;;;;4958114;28;20050;-91
2022/08/27 12:21:26;;;;;;;8.23;2.03;;;22.90;99.90;;;;;;4970506;23;20133;-89
2022/08/27 12:24:11;;;;;;;8.80;1.90;;;22.90;99.90;;;;;;4977255;28;20053;-89
2022/08/27 12:26:41;;;;;;;9.70;1.83;;;23.10;99.90;;;;;;4980377;28;20133;-90
2022/08/27 12:29:34;;;;;;;8.47;1.83;;;23.40;99.90;;;;;;4984199;28;20493;-90
2022/08/27 12:32:23;;;;;;;7.30;1.75;;;23.40;99.90;;;;;;4977172;28;20050;-90
2022/08/27 12:35:12;;;;;;;8.68;1.85;;;23.20;99.40;;;;;;4982649;28;20134;-89
2022/08/27 12:38:00;;;;;;;9.00;2.00;;;23.00;99.40;;;;;;4978068;28;20046;-89
2022/08/27 12:40:50;;;;;;;8.80;1.92;;;22.90;99.20;;;;;;4976876;28;20050;-89
2022/08/27 12:43:32;;;;;;;8.38;1.95;;;23.10;99.10;;;;;;4976970;28;20050;-90
2022/08/27 12:46:17;;;;;;;7.75;1.80;;;23.10;99.50;;;;;;4995025;28;20092;-90
2022/08/27 12:49:30;;;;;;;4.63;1.80;;;22.90;99.00;;;;;;4978938;28;20371;-90
2022/08/27 12:52:16;;;;;;;9.52;1.80;;;23.00;99.00;;;;;;4949959;28;20407;-90
2022/08/27 12:55:12;;;;;;;7.30;2.00;;;23.30;98.90;;;;;;4974792;28;20115;-89
2022/08/27 12:58:08;;;;;;;6.70;1.80;;;23.10;98.50;;;;;;4975521;28;20114;-92
2022/08/27 13:01:19;;;;;;;9.90;1.85;;;23.00;98.40;;;;;;4982848;28;20050;-92
2022/08/27 13:03:55;;;;;;;7.63;2.00;;;23.00;98.90;;;;;;4974960;28;20054;-91
2022/08/27 13:06:44;;;;;;;7.32;2.00;;;22.70;98.90;;;;;;4975617;28;20129;-91
2022/08/27 13:09:10;;;;;;;7.00;1.73;;;22.60;98.70;;;;;;4981777;28;20125;-91
2022/08/27 13:11:48;;;;;;;7.18;1.77;;;23.40;99.30;;;;;;4993654;28;20049;-90
2022/08/27 13:14:32;;;;;;;8.05;1.70;;;22.80;98.30;;;;;;4994007;28;20073;-91
2022/08/27 13:17:22;;;;;;;8.63;1.80;;;22.90;98.30;;;;;;4999466;28;20038;-89
2022/08/27 13:20:35;;;;;;;8.13;2.10;;;23.00;98.40;;;;;;4975838;28;20069;-91
2022/08/27 13:23:01;;;;;;;8.43;1.80;;;23.00;97.60;;;;;;4897465;29;20044;-90